Time;durP1;ratioP1;P1;durP2;ratioP2;P2;SDS_P1;SDS_P2;PMS_P1;PMS_P2;Temp;Humidity;BMP_temperature;BMP_pressure;BME280_temperature;BME280_humidity;BME280_pressure;Samples;Min_cycle;Max_cycle;Signal;HPM_P1;HPM_P2
2022/01/09 00:01:47;;;;;;;;;5.00;0.75;;;;;;;;5002215;28;11466;-80
2022/01/09 00:04:15;;;;;;;;;1.00;1.00;;;;;;;;5002860;28;11621;-80
2022/01/09 00:06:43;;;;;;;;;4.75;2.00;;;;;;;;5005228;28;12276;-80
2022/01/09 00:09:11;;;;;;;;;1.00;1.00;;;;;;;;5008002;28;11585;-80
2022/01/09 00:11:38;;;;;;;;;2.00;0.50;;;;;;;;4997202;28;11617;-80
2022/01/09 00:14:06;;;;;;;;;1.00;1.00;;;;;;;;5004542;28;11491;-79
2022/01/09 00:16:34;;;;;;;;;3.00;2.00;;;;;;;;5002466;28;11518;-80
2022/01/09 00:19:02;;;;;;;;;2.75;1.00;;;;;;;;5003283;28;11503;-80
2022/01/09 00:21:29;;;;;;;;;3.50;1.00;;;;;;;;5004119;28;11511;-80
2022/01/09 00:23:56;;;;;;;;;3.00;1.00;;;;;;;;5001337;28;11519;-80
2022/01/09 00:26:24;;;;;;;;;0.25;0.25;;;;;;;;5002572;28;11522;-80
2022/01/09 00:28:51;;;;;;;;;1.00;1.00;;;;;;;;5003696;28;11571;-80
2022/01/09 00:31:19;;;;;;;;;0.00;0.00;;;;;;;;5002520;28;12253;-80
2022/01/09 00:33:47;;;;;;;;;2.00;2.00;;;;;;;;5002514;28;11517;-80
2022/01/09 00:36:15;;;;;;;;;2.00;2.00;;;;;;;;5000345;28;11530;-79
2022/01/09 00:38:42;;;;;;;;;1.75;0.25;;;;;;;;5002957;28;11495;-79
2022/01/09 00:41:10;;;;;;;;;2.00;0.00;;;;;;;;5003114;28;11514;-80
2022/01/09 00:43:37;;;;;;;;;0.00;0.00;;;;;;;;5002745;28;12417;-80
2022/01/09 00:46:04;;;;;;;;;1.50;0.50;;;;;;;;5002713;28;11545;-80
2022/01/09 00:48:31;;;;;;;;;1.00;1.00;;;;;;;;5011606;28;12404;-79
2022/01/09 00:51:00;;;;;;;;;1.75;1.00;;;;;;;;5002226;28;11488;-80
2022/01/09 00:53:27;;;;;;;;;0.00;0.00;;;;;;;;5003980;28;11633;-79
2022/01/09 00:55:55;;;;;;;;;0.75;0.00;;;;;;;;5001255;28;11644;-79
2022/01/09 00:58:22;;;;;;;;;0.50;0.50;;;;;;;;5003615;28;11582;-79
2022/01/09 01:00:49;;;;;;;;;2.00;1.00;;;;;;;;5001026;28;12205;-78
2022/01/09 01:03:17;;;;;;;;;2.00;2.00;;;;;;;;5001915;28;11517;-79
2022/01/09 01:05:44;;;;;;;;;1.25;1.00;;;;;;;;5002565;28;11591;-79
2022/01/09 01:08:13;;;;;;;;;0.00;0.00;;;;;;;;5005165;28;11512;-79
2022/01/09 01:10:40;;;;;;;;;1.75;0.25;;;;;;;;5005128;28;11628;-81
2022/01/09 01:13:07;;;;;;;;;2.00;1.00;;;;;;;;5002518;28;11517;-80
2022/01/09 01:15:35;;;;;;;;;1.50;0.00;;;;;;;;5003136;28;11605;-79
2022/01/09 01:18:02;;;;;;;;;1.00;1.00;;;;;;;;5002255;28;11611;-79
2022/01/09 01:20:31;;;;;;;;;1.00;1.00;;;;;;;;5001669;28;11474;-79
2022/01/09 01:22:59;;;;;;;;;1.50;0.00;;;;;;;;5001444;28;11523;-81
2022/01/09 01:25:28;;;;;;;;;1.00;1.00;;;;;;;;4999906;28;11506;-80
2022/01/09 01:27:55;;;;;;;;;1.00;1.00;;;;;;;;5003177;28;11500;-80
2022/01/09 01:30:23;;;;;;;;;1.50;1.50;;;;;;;;5000782;28;11462;-79
2022/01/09 01:32:50;;;;;;;;;4.00;0.00;;;;;;;;5002113;28;11634;-79
2022/01/09 01:35:18;;;;;;;;;0.25;0.00;;;;;;;;4997242;28;11501;-80
2022/01/09 01:37:47;;;;;;;;;1.75;1.00;;;;;;;;5000904;28;11507;-79
2022/01/09 01:40:16;;;;;;;;;2.00;1.00;;;;;;;;5000744;28;12298;-80
2022/01/09 01:42:45;;;;;;;;;0.75;0.75;;;;;;;;4999054;28;11493;-80
2022/01/09 01:45:13;;;;;;;;;2.50;1.00;;;;;;;;5002777;28;11608;-79
2022/01/09 01:47:40;;;;;;;;;0.50;0.50;;;;;;;;5001099;28;11493;-79
2022/01/09 01:50:11;;;;;;;;;2.00;0.00;;;;;;;;5001580;28;11639;-79
2022/01/09 01:52:42;;;;;;;;;0.00;0.00;;;;;;;;4984649;28;11514;-79
2022/01/09 01:55:12;;;;;;;;;1.00;0.25;;;;;;;;5000420;28;12331;-79
2022/01/09 01:57:41;;;;;;;;;1.00;1.00;;;;;;;;5010304;28;11508;-80
2022/01/09 02:00:13;;;;;;;;;1.25;0.50;;;;;;;;5001037;28;11523;-80
2022/01/09 02:02:40;;;;;;;;;1.00;1.00;;;;;;;;5002545;28;11613;-80
2022/01/09 02:05:09;;;;;;;;;5.00;3.00;;;;;;;;5001275;28;12401;-80
2022/01/09 02:07:38;;;;;;;;;2.50;1.00;;;;;;;;5000015;28;11502;-79
2022/01/09 02:10:08;;;;;;;;;5.25;4.25;;;;;;;;5000512;28;12378;-83
2022/01/09 02:12:37;;;;;;;;;1.00;1.00;;;;;;;;5004343;28;11496;-80
2022/01/09 02:15:31;;;;;;;;;2.75;1.00;;;;;;;;5001589;28;11484;-80
2022/01/09 02:17:58;;;;;;;;;1.50;1.50;;;;;;;;5000892;28;11486;-79
2022/01/09 02:20:28;;;;;;;;;0.00;0.00;;;;;;;;5001082;28;11605;-80
2022/01/09 02:22:55;;;;;;;;;0.25;0.25;;;;;;;;5001622;28;11522;-80
2022/01/09 02:25:23;;;;;;;;;1.00;1.00;;;;;;;;5001673;28;11639;-80
2022/01/09 02:27:51;;;;;;;;;0.00;0.00;;;;;;;;5000465;28;11489;-80
2022/01/09 02:30:19;;;;;;;;;0.00;0.00;;;;;;;;5001288;28;11481;-80
2022/01/09 02:32:46;;;;;;;;;1.00;1.00;;;;;;;;5001326;28;11603;-80
2022/01/09 02:35:13;;;;;;;;;0.00;0.00;;;;;;;;4998528;28;12302;-80
2022/01/09 02:37:42;;;;;;;;;0.00;0.00;;;;;;;;5001092;28;11614;-80
2022/01/09 02:40:10;;;;;;;;;1.00;0.00;;;;;;;;5000656;28;11481;-80
2022/01/09 02:42:38;;;;;;;;;0.00;0.00;;;;;;;;5001451;28;11491;-79
2022/01/09 02:45:06;;;;;;;;;0.00;0.00;;;;;;;;4998655;28;11475;-79
2022/01/09 02:47:34;;;;;;;;;0.00;0.00;;;;;;;;5003099;28;11543;-79
2022/01/09 02:50:11;;;;;;;;;1.00;0.00;;;;;;;;5000537;28;12288;-79
2022/01/09 02:52:49;;;;;;;;;0.00;0.00;;;;;;;;5001620;28;11488;-79
2022/01/09 02:55:18;;;;;;;;;0.00;0.00;;;;;;;;5001063;28;11495;-79
2022/01/09 02:57:48;;;;;;;;;0.00;0.00;;;;;;;;5001732;28;11521;-79
2022/01/09 03:00:17;;;;;;;;;0.00;0.00;;;;;;;;5004269;28;11531;-80
2022/01/09 03:02:44;;;;;;;;;0.00;0.00;;;;;;;;5005744;28;11694;-80
2022/01/09 03:05:12;;;;;;;;;0.00;0.00;;;;;;;;5004834;28;11563;-79
2022/01/09 03:07:41;;;;;;;;;0.00;0.00;;;;;;;;5006621;28;12289;-79
2022/01/09 03:10:09;;;;;;;;;0.00;0.00;;;;;;;;5003098;28;11541;-80
2022/01/09 03:12:39;;;;;;;;;0.00;0.00;;;;;;;;5003172;28;11469;-80
2022/01/09 03:15:08;;;;;;;;;0.00;0.00;;;;;;;;5001503;28;11498;-80
2022/01/09 03:17:35;;;;;;;;;0.00;0.00;;;;;;;;5003910;28;11616;-80
2022/01/09 03:20:04;;;;;;;;;0.00;0.00;;;;;;;;5004215;28;11484;-80
2022/01/09 03:22:31;;;;;;;;;0.00;0.00;;;;;;;;5010079;28;11554;-79
2022/01/09 03:24:59;;;;;;;;;1.00;1.00;;;;;;;;5005020;28;11504;-80
2022/01/09 03:27:27;;;;;;;;;1.75;0.00;;;;;;;;5004026;28;12303;-79
2022/01/09 03:29:56;;;;;;;;;5.00;0.75;;;;;;;;5005263;28;11534;-80
2022/01/09 03:32:23;;;;;;;;;0.25;0.00;;;;;;;;5001966;28;11433;-79
2022/01/09 03:34:50;;;;;;;;;0.00;0.00;;;;;;;;5002647;28;11513;-79
2022/01/09 03:37:17;;;;;;;;;4.00;1.75;;;;;;;;5000671;28;11592;-79
2022/01/09 03:39:44;;;;;;;;;0.00;0.00;;;;;;;;5005388;28;11522;-79
2022/01/09 03:42:12;;;;;;;;;1.50;0.75;;;;;;;;5003397;28;11479;-79
2022/01/09 03:44:39;;;;;;;;;1.75;1.75;;;;;;;;5006851;28;11493;-79
2022/01/09 03:47:08;;;;;;;;;4.25;1.00;;;;;;;;5003647;28;11602;-81
2022/01/09 03:49:35;;;;;;;;;4.00;1.00;;;;;;;;5003674;28;11653;-80
2022/01/09 03:52:03;;;;;;;;;0.75;0.75;;;;;;;;5004116;28;11622;-80
2022/01/09 03:54:30;;;;;;;;;2.00;0.00;;;;;;;;5003235;28;11650;-80
2022/01/09 03:56:57;;;;;;;;;0.25;0.00;;;;;;;;5004105;28;12404;-80
2022/01/09 03:59:25;;;;;;;;;0.00;0.00;;;;;;;;5003447;28;11579;-79
2022/01/09 04:01:52;;;;;;;;;0.00;0.00;;;;;;;;5003042;28;11574;-79
2022/01/09 04:04:20;;;;;;;;;2.00;0.75;;;;;;;;5004276;28;11474;-79
2022/01/09 04:06:50;;;;;;;;;4.75;2.00;;;;;;;;5001869;28;11573;-80
2022/01/09 04:09:38;;;;;;;;;1.00;1.00;;;;;;;;5003893;28;11524;-79
2022/01/09 04:12:14;;;;;;;;;1.25;1.00;;;;;;;;5002491;28;11542;-79
2022/01/09 04:14:41;;;;;;;;;2.75;1.00;;;;;;;;4997597;28;12365;-80
2022/01/09 04:17:15;;;;;;;;;0.00;0.00;;;;;;;;5003544;28;11601;-79
2022/01/09 04:19:44;;;;;;;;;2.00;1.75;;;;;;;;4997171;28;11488;-79
2022/01/09 04:22:11;;;;;;;;;0.00;0.00;;;;;;;;5003593;28;11617;-79
2022/01/09 04:24:39;;;;;;;;;2.00;1.00;;;;;;;;5002876;28;11544;-79
2022/01/09 04:27:06;;;;;;;;;2.00;0.25;;;;;;;;5004404;28;11625;-79
2022/01/09 04:29:34;;;;;;;;;0.00;0.00;;;;;;;;5005864;28;11517;-79
2022/01/09 04:32:01;;;;;;;;;5.00;1.00;;;;;;;;5004308;28;11485;-79
2022/01/09 04:34:28;;;;;;;;;1.00;0.00;;;;;;;;4994006;28;11552;-78
2022/01/09 04:36:59;;;;;;;;;0.75;0.75;;;;;;;;4997284;28;12265;-80
2022/01/09 04:39:27;;;;;;;;;1.00;1.00;;;;;;;;5004313;28;12301;-80
2022/01/09 04:41:55;;;;;;;;;6.00;0.00;;;;;;;;5002162;28;11495;-79
2022/01/09 04:44:23;;;;;;;;;0.00;0.00;;;;;;;;5003956;28;11495;-79
2022/01/09 04:46:56;;;;;;;;;0.50;0.00;;;;;;;;5006682;28;11567;-79
2022/01/09 04:49:26;;;;;;;;;1.00;0.00;;;;;;;;5000433;28;11633;-79
2022/01/09 04:51:55;;;;;;;;;0.25;0.25;;;;;;;;5000276;28;11608;-78
2022/01/09 04:54:24;;;;;;;;;0.00;0.00;;;;;;;;5001758;28;11485;-79
2022/01/09 04:56:51;;;;;;;;;0.75;0.75;;;;;;;;5003534;28;11511;-79
2022/01/09 04:59:18;;;;;;;;;0.00;0.00;;;;;;;;5002349;28;11611;-78
2022/01/09 05:01:46;;;;;;;;;3.00;1.00;;;;;;;;4999744;28;11454;-78
2022/01/09 05:04:13;;;;;;;;;6.50;0.00;;;;;;;;5002251;28;11509;-80
2022/01/09 05:06:40;;;;;;;;;2.00;0.00;;;;;;;;5005608;28;11483;-81
2022/01/09 05:09:10;;;;;;;;;2.00;0.00;;;;;;;;5007347;28;11531;-81
2022/01/09 05:11:39;;;;;;;;;0.00;0.00;;;;;;;;5002887;28;11528;-81
2022/01/09 05:14:07;;;;;;;;;0.75;0.00;;;;;;;;5003247;28;11467;-81
2022/01/09 05:16:35;;;;;;;;;4.25;1.25;;;;;;;;5000857;28;11511;-80
2022/01/09 05:19:05;;;;;;;;;1.00;0.00;;;;;;;;5000183;28;11587;-79
2022/01/09 05:21:33;;;;;;;;;0.25;0.00;;;;;;;;5010531;28;11513;-80
2022/01/09 05:24:01;;;;;;;;;0.00;0.00;;;;;;;;5001351;28;11513;-80
2022/01/09 05:26:28;;;;;;;;;0.00;0.00;;;;;;;;5001775;28;11605;-80
2022/01/09 05:28:58;;;;;;;;;0.75;0.75;;;;;;;;5001864;28;11505;-80
2022/01/09 05:31:25;;;;;;;;;1.00;1.00;;;;;;;;4999651;28;12250;-81
2022/01/09 05:33:52;;;;;;;;;2.00;0.00;;;;;;;;4996460;28;12701;-80
2022/01/09 05:36:19;;;;;;;;;1.50;0.25;;;;;;;;5000879;28;11521;-80
2022/01/09 05:38:47;;;;;;;;;0.00;0.00;;;;;;;;5006968;28;11629;-80
2022/01/09 05:41:14;;;;;;;;;1.00;1.00;;;;;;;;5002407;28;11489;-80
2022/01/09 05:43:41;;;;;;;;;4.00;0.00;;;;;;;;5005270;28;11511;-80
2022/01/09 05:46:11;;;;;;;;;0.00;0.00;;;;;;;;5003721;28;11505;-80
2022/01/09 05:48:39;;;;;;;;;0.00;0.00;;;;;;;;5002386;28;11600;-79
2022/01/09 05:51:07;;;;;;;;;0.00;0.00;;;;;;;;4999114;28;11539;-80
2022/01/09 05:53:35;;;;;;;;;1.00;0.00;;;;;;;;5000930;28;11608;-79
2022/01/09 05:56:02;;;;;;;;;2.00;0.75;;;;;;;;5002140;28;11500;-80
2022/01/09 05:58:29;;;;;;;;;0.00;0.00;;;;;;;;5003200;28;11607;-80
2022/01/09 06:00:56;;;;;;;;;5.00;0.50;;;;;;;;4999825;28;11435;-79
2022/01/09 06:03:25;;;;;;;;;0.00;0.00;;;;;;;;5002417;28;11461;-79
2022/01/09 06:05:53;;;;;;;;;0.00;0.00;;;;;;;;5001157;28;11598;-80
2022/01/09 06:08:20;;;;;;;;;0.25;0.00;;;;;;;;5002559;28;11606;-80
2022/01/09 06:10:48;;;;;;;;;0.75;0.00;;;;;;;;5002525;28;11482;-80
2022/01/09 06:13:15;;;;;;;;;0.00;0.00;;;;;;;;5000199;28;12349;-79
2022/01/09 06:15:43;;;;;;;;;2.00;0.75;;;;;;;;5000820;28;11468;-80
2022/01/09 06:18:11;;;;;;;;;0.50;0.50;;;;;;;;4999499;28;11604;-80
2022/01/09 06:20:43;;;;;;;;;0.00;0.00;;;;;;;;4999989;28;11518;-78
2022/01/09 06:23:10;;;;;;;;;4.00;0.00;;;;;;;;4995897;28;11521;-79
2022/01/09 06:25:38;;;;;;;;;1.00;1.00;;;;;;;;5000602;28;11599;-79
2022/01/09 06:28:05;;;;;;;;;0.00;0.00;;;;;;;;4999844;28;11554;-79
2022/01/09 06:30:33;;;;;;;;;1.00;1.00;;;;;;;;4986462;28;11507;-80
2022/01/09 06:33:00;;;;;;;;;0.00;0.00;;;;;;;;5005679;28;11570;-80
2022/01/09 06:35:27;;;;;;;;;0.00;0.00;;;;;;;;5004122;28;12398;-80
2022/01/09 06:37:56;;;;;;;;;4.00;0.00;;;;;;;;5005790;28;11572;-80
2022/01/09 06:40:24;;;;;;;;;1.00;1.00;;;;;;;;5004585;28;11566;-81
2022/01/09 06:42:52;;;;;;;;;6.50;0.75;;;;;;;;5003590;28;11566;-80
2022/01/09 06:45:21;;;;;;;;;0.50;0.50;;;;;;;;5007109;28;12355;-77
2022/01/09 06:47:49;;;;;;;;;0.75;0.75;;;;;;;;5004856;28;11586;-79
2022/01/09 06:50:17;;;;;;;;;0.00;0.00;;;;;;;;5003993;28;12792;-80
2022/01/09 06:52:44;;;;;;;;;1.00;1.00;;;;;;;;5002682;28;11975;-80
2022/01/09 06:55:14;;;;;;;;;0.00;0.00;;;;;;;;5001026;28;11626;-80
2022/01/09 06:57:42;;;;;;;;;0.00;0.00;;;;;;;;5003085;28;11603;-82
2022/01/09 07:00:11;;;;;;;;;0.75;0.00;;;;;;;;5003760;28;11630;-80
2022/01/09 07:02:39;;;;;;;;;0.00;0.00;;;;;;;;5002809;28;11563;-80
2022/01/09 07:05:07;;;;;;;;;0.75;0.00;;;;;;;;5002018;28;11622;-78
2022/01/09 07:07:34;;;;;;;;;5.00;1.00;;;;;;;;5003349;28;12510;-78
2022/01/09 07:10:01;;;;;;;;;0.00;0.00;;;;;;;;5001901;28;11503;-79
2022/01/09 07:12:31;;;;;;;;;0.00;0.00;;;;;;;;5004150;28;11569;-78
2022/01/09 07:14:58;;;;;;;;;0.00;0.00;;;;;;;;5001713;28;11589;-80
2022/01/09 07:17:26;;;;;;;;;0.00;0.00;;;;;;;;4987838;28;11513;-78
2022/01/09 07:19:53;;;;;;;;;0.00;0.00;;;;;;;;5006663;28;11666;-79
2022/01/09 07:22:20;;;;;;;;;1.25;0.00;;;;;;;;5004886;28;11576;-79
2022/01/09 07:24:47;;;;;;;;;1.50;0.00;;;;;;;;5004152;28;11542;-78
2022/01/09 07:27:15;;;;;;;;;0.50;0.50;;;;;;;;5002765;28;11680;-79
2022/01/09 07:29:43;;;;;;;;;0.50;0.50;;;;;;;;5004023;28;11689;-79
2022/01/09 07:32:11;;;;;;;;;4.25;1.00;;;;;;;;5002815;28;11516;-78
2022/01/09 07:34:39;;;;;;;;;0.75;0.50;;;;;;;;4992433;28;11579;-79
2022/01/09 07:37:07;;;;;;;;;3.50;1.00;;;;;;;;4999685;28;11623;-79
2022/01/09 07:39:34;;;;;;;;;1.00;1.00;;;;;;;;5002723;28;11557;-79
2022/01/09 07:42:02;;;;;;;;;0.50;0.50;;;;;;;;5001417;28;11641;-80
2022/01/09 07:44:29;;;;;;;;;1.50;1.00;;;;;;;;5001106;28;11552;-79
2022/01/09 07:46:58;;;;;;;;;0.00;0.00;;;;;;;;5002588;28;11530;-83
2022/01/09 07:49:26;;;;;;;;;2.00;0.00;;;;;;;;4998107;28;11693;-84
2022/01/09 07:51:53;;;;;;;;;0.00;0.00;;;;;;;;5005286;28;11588;-86
2022/01/09 07:54:21;;;;;;;;;1.25;0.00;;;;;;;;5007079;28;11509;-79
2022/01/09 07:56:50;;;;;;;;;0.00;0.00;;;;;;;;5006892;28;11532;-85
2022/01/09 07:59:18;;;;;;;;;0.75;0.75;;;;;;;;5002879;28;11507;-83
2022/01/09 08:01:53;;;;;;;;;0.00;0.00;;;;;;;;4979286;28;11471;-85
2022/01/09 08:04:25;;;;;;;;;0.00;0.00;;;;;;;;5003249;28;11490;-84
2022/01/09 08:06:52;;;;;;;;;2.00;0.00;;;;;;;;5002300;28;11482;-83
2022/01/09 08:09:20;;;;;;;;;0.00;0.00;;;;;;;;5002213;28;11484;-84
2022/01/09 08:11:47;;;;;;;;;0.00;0.00;;;;;;;;5003567;28;11463;-86
2022/01/09 08:14:17;;;;;;;;;0.00;0.00;;;;;;;;5004548;28;11515;-82
2022/01/09 08:16:44;;;;;;;;;0.00;0.00;;;;;;;;5001886;28;11535;-81
2022/01/09 08:19:11;;;;;;;;;0.00;0.00;;;;;;;;5004154;28;12295;-81
2022/01/09 08:21:40;;;;;;;;;0.00;0.00;;;;;;;;5003552;28;11482;-81
2022/01/09 08:24:07;;;;;;;;;0.00;0.00;;;;;;;;5001709;28;11670;-79
2022/01/09 08:26:35;;;;;;;;;0.00;0.00;;;;;;;;5008427;28;11517;-81
2022/01/09 08:29:02;;;;;;;;;0.00;0.00;;;;;;;;5002151;28;11554;-80
2022/01/09 08:31:30;;;;;;;;;0.00;0.00;;;;;;;;5000345;28;11502;-81
2022/01/09 08:33:57;;;;;;;;;0.75;0.50;;;;;;;;5002540;28;11654;-74
2022/01/09 08:36:24;;;;;;;;;0.00;0.00;;;;;;;;5003100;28;11566;-80
2022/01/09 08:38:53;;;;;;;;;0.00;0.00;;;;;;;;5001040;28;11578;-80
2022/01/09 08:41:21;;;;;;;;;0.00;0.00;;;;;;;;5001606;28;11539;-81
2022/01/09 08:43:48;;;;;;;;;0.00;0.00;;;;;;;;5001802;28;11540;-81
2022/01/09 08:46:16;;;;;;;;;0.00;0.00;;;;;;;;5001922;28;11612;-82
2022/01/09 08:48:44;;;;;;;;;0.00;0.00;;;;;;;;5001278;28;11551;-80
2022/01/09 08:51:11;;;;;;;;;0.00;0.00;;;;;;;;5001323;28;11776;-79
2022/01/09 08:53:39;;;;;;;;;0.00;0.00;;;;;;;;5005952;28;11662;-87
2022/01/09 08:56:08;;;;;;;;;1.50;0.00;;;;;;;;5003023;28;11659;-86
2022/01/09 08:58:36;;;;;;;;;0.00;0.00;;;;;;;;5003565;28;11538;-84
2022/01/09 09:01:03;;;;;;;;;3.50;0.00;;;;;;;;5004638;28;11524;-82
2022/01/09 09:03:31;;;;;;;;;0.00;0.00;;;;;;;;5003200;28;11590;-80
2022/01/09 09:05:58;;;;;;;;;4.00;1.75;;;;;;;;5003273;28;11541;-81
2022/01/09 09:08:25;;;;;;;;;1.75;0.00;;;;;;;;5001326;28;11577;-85
2022/01/09 09:10:53;;;;;;;;;2.00;0.00;;;;;;;;5005554;28;11567;-86
2022/01/09 09:13:22;;;;;;;;;0.00;0.00;;;;;;;;4999154;28;11680;-75
2022/01/09 09:15:49;;;;;;;;;0.00;0.00;;;;;;;;5000037;28;11577;-79
2022/01/09 09:18:16;;;;;;;;;0.00;0.00;;;;;;;;4999327;28;11512;-76
2022/01/09 09:20:45;;;;;;;;;0.00;0.00;;;;;;;;4999096;28;11575;-76
2022/01/09 09:23:12;;;;;;;;;0.00;0.00;;;;;;;;5001744;28;11538;-76
2022/01/09 09:25:39;;;;;;;;;0.25;0.00;;;;;;;;4999668;28;11555;-77
2022/01/09 09:28:07;;;;;;;;;0.00;0.00;;;;;;;;5001755;28;12412;-77
2022/01/09 09:30:36;;;;;;;;;1.00;0.00;;;;;;;;4998411;28;11449;-78
2022/01/09 09:33:05;;;;;;;;;0.00;0.00;;;;;;;;5001043;28;11544;-76
2022/01/09 09:35:33;;;;;;;;;0.00;0.00;;;;;;;;4999450;28;11614;-76
2022/01/09 09:38:02;;;;;;;;;1.50;0.00;;;;;;;;5001284;28;11512;-75
2022/01/09 09:40:30;;;;;;;;;0.75;0.00;;;;;;;;5001483;28;11580;-76
2022/01/09 09:42:57;;;;;;;;;0.00;0.00;;;;;;;;4999882;28;11631;-76
2022/01/09 09:45:26;;;;;;;;;0.00;0.00;;;;;;;;5001350;28;12829;-77
2022/01/09 09:47:55;;;;;;;;;0.00;0.00;;;;;;;;4999020;28;11482;-76
2022/01/09 09:50:23;;;;;;;;;1.50;0.00;;;;;;;;5001165;28;12302;-80
2022/01/09 09:52:50;;;;;;;;;0.00;0.00;;;;;;;;5002784;28;11499;-77
2022/01/09 09:55:19;;;;;;;;;0.00;0.00;;;;;;;;5001263;28;11648;-76
2022/01/09 09:57:47;;;;;;;;;0.00;0.00;;;;;;;;4999519;28;11498;-77
2022/01/09 10:00:16;;;;;;;;;0.00;0.00;;;;;;;;4998120;28;11592;-77
2022/01/09 10:02:46;;;;;;;;;0.00;0.00;;;;;;;;5000922;28;11484;-75
2022/01/09 10:05:17;;;;;;;;;1.00;1.00;;;;;;;;4999321;28;11565;-77
2022/01/09 10:07:44;;;;;;;;;1.25;1.25;;;;;;;;4999445;28;11500;-76
2022/01/09 10:10:14;;;;;;;;;0.00;0.00;;;;;;;;5004038;28;11634;-77
2022/01/09 10:12:42;;;;;;;;;1.25;0.00;;;;;;;;4999037;28;11575;-78
2022/01/09 10:15:12;;;;;;;;;2.00;0.00;;;;;;;;5000111;28;11467;-77
2022/01/09 10:17:43;;;;;;;;;0.00;0.00;;;;;;;;4998008;28;11506;-76
2022/01/09 10:20:15;;;;;;;;;0.00;0.00;;;;;;;;5001679;28;11468;-76
2022/01/09 10:22:43;;;;;;;;;0.00;0.00;;;;;;;;4997687;28;11489;-77
2022/01/09 10:25:25;;;;;;;;;0.00;0.00;;;;;;;;4999132;28;11551;-76
2022/01/09 10:27:57;;;;;;;;;0.00;0.00;;;;;;;;4998366;28;11468;-77
2022/01/09 10:30:27;;;;;;;;;0.75;0.00;;;;;;;;4995684;28;11425;-79
2022/01/09 10:32:57;;;;;;;;;0.00;0.00;;;;;;;;5000585;28;11564;-81
2022/01/09 10:35:28;;;;;;;;;1.00;0.00;;;;;;;;4999216;28;11560;-81
2022/01/09 10:38:07;;;;;;;;;0.00;0.00;;;;;;;;4999967;28;11267;-78
2022/01/09 10:40:36;;;;;;;;;0.00;0.00;;;;;;;;4997907;28;11477;-76
2022/01/09 10:43:07;;;;;;;;;0.00;0.00;;;;;;;;5001756;28;11486;-78
2022/01/09 10:45:37;;;;;;;;;0.00;0.00;;;;;;;;4999172;28;11817;-79
2022/01/09 10:48:07;;;;;;;;;2.00;0.50;;;;;;;;5000585;28;11148;-77
2022/01/09 10:50:39;;;;;;;;;1.50;0.25;;;;;;;;5000555;28;11174;-78
2022/01/09 10:53:15;;;;;;;;;1.75;0.00;;;;;;;;4997191;28;11499;-79
2022/01/09 10:55:43;;;;;;;;;1.50;0.00;;;;;;;;4998708;28;11579;-80
2022/01/09 10:58:21;;;;;;;;;1.00;1.00;;;;;;;;4999979;28;11510;-78
2022/01/09 11:00:49;;;;;;;;;1.00;0.00;;;;;;;;5001114;28;11466;-78
2022/01/09 11:03:16;;;;;;;;;2.00;0.25;;;;;;;;5000532;28;11529;-77
2022/01/09 11:05:45;;;;;;;;;0.75;0.75;;;;;;;;5002940;28;11994;-75
2022/01/09 11:08:12;;;;;;;;;1.00;1.00;;;;;;;;4999628;28;11503;-76
2022/01/09 11:10:40;;;;;;;;;2.50;0.75;;;;;;;;4999405;28;11470;-76
2022/01/09 11:13:14;;;;;;;;;1.25;1.00;;;;;;;;5002085;28;11486;-79
2022/01/09 11:16:32;;;;;;;;;0.00;0.00;;;;;;;;4999824;28;11250;-80
2022/01/09 11:18:33;;;;;;;;;1.00;1.00;;;;;;;;5010681;28;11500;-79
2022/01/09 11:21:02;;;;;;;;;0.00;0.00;;;;;;;;5002827;28;11583;-79
2022/01/09 11:23:41;;;;;;;;;0.00;0.00;;;;;;;;5010954;28;11333;-81
2022/01/09 11:26:14;;;;;;;;;0.00;0.00;;;;;;;;5006442;28;11249;-77
2022/01/09 11:28:43;;;;;;;;;1.00;1.00;;;;;;;;5003358;28;11174;-77
2022/01/09 11:31:17;;;;;;;;;1.00;0.00;;;;;;;;5002887;28;11115;-78
2022/01/09 11:33:52;;;;;;;;;0.00;0.00;;;;;;;;5003929;28;11069;-77
2022/01/09 11:36:25;;;;;;;;;0.00;0.00;;;;;;;;4994993;28;11236;-77
2022/01/09 11:38:59;;;;;;;;;0.00;0.00;;;;;;;;5004040;28;11184;-74
2022/01/09 11:41:28;;;;;;;;;0.00;0.00;;;;;;;;5003133;28;11088;-75
2022/01/09 11:43:58;;;;;;;;;0.00;0.00;;;;;;;;5007416;28;10943;-75
2022/01/09 11:46:26;;;;;;;;;2.50;0.00;;;;;;;;5006282;28;11012;-75
2022/01/09 11:49:06;;;;;;;;;0.50;0.50;;;;;;;;5005298;28;11109;-78
2022/01/09 11:51:36;;;;;;;;;0.00;0.00;;;;;;;;5001182;28;10927;-75
2022/01/09 11:54:13;;;;;;;;;2.00;0.75;;;;;;;;5001218;28;11007;-78
2022/01/09 11:56:48;;;;;;;;;0.00;0.00;;;;;;;;5003977;28;10926;-76
2022/01/09 11:59:20;;;;;;;;;0.00;0.00;;;;;;;;5000421;28;11003;-75
2022/01/09 12:01:49;;;;;;;;;2.75;1.00;;;;;;;;5001201;28;11036;-76
2022/01/09 12:04:53;;;;;;;;;0.50;0.00;;;;;;;;5001403;28;10904;-74
2022/01/09 12:08:04;;;;;;;;;1.00;1.00;;;;;;;;5003105;28;11694;-75
2022/01/09 12:10:36;;;;;;;;;0.00;0.00;;;;;;;;5003419;28;10949;-75
2022/01/09 12:13:05;;;;;;;;;0.00;0.00;;;;;;;;5001682;28;10808;-76
2022/01/09 12:15:38;;;;;;;;;0.00;0.00;;;;;;;;4999876;28;10720;-73
2022/01/09 12:18:07;;;;;;;;;1.00;1.00;;;;;;;;5001838;28;10682;-74
2022/01/09 12:20:41;;;;;;;;;0.00;0.00;;;;;;;;4999845;28;10891;-75
2022/01/09 12:23:21;;;;;;;;;0.00;0.00;;;;;;;;5003177;28;10785;-77
2022/01/09 12:25:55;;;;;;;;;1.00;0.00;;;;;;;;5003810;28;10949;-78
2022/01/09 12:28:28;;;;;;;;;0.00;0.00;;;;;;;;5000904;28;10909;-77
2022/01/09 12:30:57;;;;;;;;;0.75;0.00;;;;;;;;5001862;28;11641;-78
2022/01/09 12:33:50;;;;;;;;;0.00;0.00;;;;;;;;5000263;28;10869;-77
2022/01/09 12:36:27;;;;;;;;;0.00;0.00;;;;;;;;5000672;28;11276;-80
2022/01/09 12:38:59;;;;;;;;;0.00;0.00;;;;;;;;5000006;28;10630;-81
2022/01/09 12:41:33;;;;;;;;;0.50;0.00;;;;;;;;5000763;28;11471;-79
2022/01/09 12:44:08;;;;;;;;;0.75;0.00;;;;;;;;5001681;28;10661;-78
2022/01/09 12:46:38;;;;;;;;;1.00;1.00;;;;;;;;5000421;28;10538;-80
2022/01/09 12:49:07;;;;;;;;;1.00;1.00;;;;;;;;4997918;28;10668;-81
2022/01/09 12:51:36;;;;;;;;;0.00;0.00;;;;;;;;5000049;28;10545;-81
2022/01/09 12:54:06;;;;;;;;;0.00;0.00;;;;;;;;5002732;28;11181;-76
2022/01/09 12:56:35;;;;;;;;;2.00;1.00;;;;;;;;5000875;28;10423;-78
2022/01/09 12:59:06;;;;;;;;;0.00;0.00;;;;;;;;5002677;28;10281;-77
2022/01/09 13:01:36;;;;;;;;;0.00;0.00;;;;;;;;5001073;28;10654;-78
2022/01/09 13:04:09;;;;;;;;;0.50;0.00;;;;;;;;5002025;28;10971;-79
2022/01/09 13:06:38;;;;;;;;;0.00;0.00;;;;;;;;4998355;28;9938;-78
2022/01/09 13:09:13;;;;;;;;;0.00;0.00;;;;;;;;5001908;28;10036;-78
2022/01/09 13:11:40;;;;;;;;;0.00;0.00;;;;;;;;5000839;28;9968;-76
2022/01/09 13:14:08;;;;;;;;;0.00;0.00;;;;;;;;5002042;28;10689;-78
2022/01/09 13:16:36;;;;;;;;;0.75;0.00;;;;;;;;5001822;28;9832;-78
2022/01/09 13:19:06;;;;;;;;;0.00;0.00;;;;;;;;5002821;28;9817;-77
2022/01/09 13:21:35;;;;;;;;;0.00;0.00;;;;;;;;5001786;28;9784;-76
2022/01/09 13:24:07;;;;;;;;;0.00;0.00;;;;;;;;5001949;28;9641;-77
2022/01/09 13:26:38;;;;;;;;;0.00;0.00;;;;;;;;4999737;28;9702;-77
2022/01/09 13:29:07;;;;;;;;;0.00;0.00;;;;;;;;5001997;28;9499;-78
2022/01/09 13:31:36;;;;;;;;;0.00;0.00;;;;;;;;5000512;28;9512;-78
2022/01/09 13:34:06;;;;;;;;;0.00;0.00;;;;;;;;5004143;28;9583;-79
2022/01/09 13:36:42;;;;;;;;;0.00;0.00;;;;;;;;4999294;28;9564;-77
2022/01/09 13:39:15;;;;;;;;;0.00;0.00;;;;;;;;4996308;28;9500;-77
2022/01/09 13:41:45;;;;;;;;;0.00;0.00;;;;;;;;4991951;28;9800;-78
2022/01/09 13:44:12;;;;;;;;;0.00;0.00;;;;;;;;4994652;28;9688;-77
2022/01/09 13:46:42;;;;;;;;;0.00;0.00;;;;;;;;5002161;28;9753;-76
2022/01/09 13:49:15;;;;;;;;;0.00;0.00;;;;;;;;5002283;28;9867;-77
2022/01/09 13:51:45;;;;;;;;;0.00;0.00;;;;;;;;4997136;28;9994;-77
2022/01/09 13:54:18;;;;;;;;;0.00;0.00;;;;;;;;5000135;28;10025;-78
2022/01/09 13:56:45;;;;;;;;;0.00;0.00;;;;;;;;5001616;28;9936;-77
2022/01/09 13:59:13;;;;;;;;;0.00;0.00;;;;;;;;5002491;28;10209;-78
2022/01/09 14:01:47;;;;;;;;;1.50;0.00;;;;;;;;4999333;28;10124;-76
2022/01/09 14:04:18;;;;;;;;;0.00;0.00;;;;;;;;5001406;28;10123;-76
2022/01/09 14:06:56;;;;;;;;;0.00;0.00;;;;;;;;4998679;28;10316;-76
2022/01/09 14:09:32;;;;;;;;;0.00;0.00;;;;;;;;4998372;28;10314;-78
2022/01/09 14:12:02;;;;;;;;;2.00;1.00;;;;;;;;4997608;28;11285;-76
2022/01/09 14:14:35;;;;;;;;;2.00;0.75;;;;;;;;4992009;28;10432;-78
2022/01/09 14:17:52;;;;;;;;;1.00;0.00;;;;;;;;5002848;28;10395;-79
2022/01/09 14:20:21;;;;;;;;;0.00;0.00;;;;;;;;4996848;28;10540;-78
2022/01/09 14:22:50;;;;;;;;;1.00;1.00;;;;;;;;4993558;28;11563;-76
2022/01/09 14:25:26;;;;;;;;;2.00;1.00;;;;;;;;5003583;28;10648;-78
2022/01/09 14:27:54;;;;;;;;;0.00;0.00;;;;;;;;4999714;28;11352;-79
2022/01/09 14:30:25;;;;;;;;;0.00;0.00;;;;;;;;5001831;28;10709;-77
2022/01/09 14:33:10;;;;;;;;;0.00;0.00;;;;;;;;5001626;28;10637;-77
2022/01/09 14:35:40;;;;;;;;;1.00;1.00;;;;;;;;4995095;28;10632;-79
2022/01/09 14:38:10;;;;;;;;;1.25;1.00;;;;;;;;4997034;28;10767;-76
2022/01/09 14:40:39;;;;;;;;;0.00;0.00;;;;;;;;4998770;28;10989;-77
2022/01/09 14:43:07;;;;;;;;;0.25;0.25;;;;;;;;4999610;28;10833;-78
2022/01/09 14:45:34;;;;;;;;;0.00;0.00;;;;;;;;4997684;28;11115;-77
2022/01/09 14:48:02;;;;;;;;;0.00;0.00;;;;;;;;5000764;28;10751;-77
2022/01/09 14:50:29;;;;;;;;;0.75;0.75;;;;;;;;5000861;28;10917;-78
2022/01/09 14:52:57;;;;;;;;;1.50;0.00;;;;;;;;5001452;28;10844;-76
2022/01/09 14:55:24;;;;;;;;;0.50;0.50;;;;;;;;5003515;28;11004;-76
2022/01/09 14:57:53;;;;;;;;;0.00;0.00;;;;;;;;5005304;28;11752;-76